Time;durP1;ratioP1;P1;durP2;ratioP2;P2;SDS_P1;SDS_P2;PMS_P1;PMS_P2;Temp;Humidity;BMP_temperature;BMP_pressure;BME280_temperature;BME280_humidity;BME280_pressure;Samples;Min_cycle;Max_cycle;Signal;HPM_P1;HPM_P2
2021/09/30 00:01:57;;;;;;;;;;;9.40;1.00;;;;;;5031784;28;19913;-77
2021/09/30 00:04:23;;;;;;;;;;;9.40;1.00;;;;;;5032056;28;19924;-78
2021/09/30 00:06:48;;;;;;;;;;;9.40;1.00;;;;;;5027153;28;20003;-78
2021/09/30 00:09:15;;;;;;;;;;;9.40;1.00;;;;;;5031646;28;20400;-78
2021/09/30 00:11:48;;;;;;;;;;;9.40;1.00;;;;;;5029506;28;19921;-77
2021/09/30 00:33:27;;;;;;;;;;;9.50;99.90;;;;;;5024344;28;19959;-78
2021/09/30 00:49:05;;;;;;;;;;;9.40;99.90;;;;;;5030366;28;20298;-78
2021/09/30 00:52:19;;;;;;;;;;;9.40;99.90;;;;;;5030128;28;19943;-78
2021/09/30 00:54:44;;;;;;;;;;;9.40;99.90;;;;;;5030848;28;20004;-77
2021/09/30 01:34:10;;;;;;;;;;;9.40;1.00;;;;;;5031132;28;19920;-77
2021/09/30 02:23:26;;;;;;;;;;;9.10;99.90;;;;;;5031968;28;19936;-78
2021/09/30 02:28:20;;;;;;;;;;;9.10;99.90;;;;;;5032631;28;19952;-78
2021/09/30 02:58:29;;;;;;;;;;;8.90;1.00;;;;;;5031637;28;19931;-78
2021/09/30 03:00:56;;;;;;;;;;;8.90;1.00;;;;;;5012720;28;19925;-78
2021/09/30 03:03:24;;;;;;;;;;;8.80;1.00;;;;;;5025672;28;19935;-78
2021/09/30 03:05:53;;;;;;;;;;;8.80;1.00;;;;;;5058946;22;20304;-85
2021/09/30 03:08:30;;;;;;;;;;;8.90;1.00;;;;;;5040380;28;19909;-85
2021/09/30 03:10:56;;;;;;;;;;;8.80;1.00;;;;;;5024701;28;19917;-84
2021/09/30 03:13:23;;;;;;;;;;;8.80;1.00;;;;;;5039114;28;20407;-84
2021/09/30 03:15:55;;;;;;;;;;;8.80;1.00;;;;;;5037127;28;19939;-84
2021/09/30 03:18:27;;;;;;;;;;;8.80;1.00;;;;;;5038229;28;19932;-84
2021/09/30 03:23:23;;;;;;;;;;;8.80;1.00;;;;;;5040230;28;19909;-84
2021/09/30 03:25:50;;;;;;;;;;;8.80;1.00;;;;;;5039334;28;19980;-84
2021/09/30 03:28:17;;;;;;;;;;;8.80;1.00;;;;;;5039809;28;19913;-84
2021/09/30 03:30:43;;;;;;;;;;;8.80;1.00;;;;;;5039975;28;20026;-84
2021/09/30 03:33:09;;;;;;;;;;;8.80;1.00;;;;;;5042052;28;19919;-84
2021/09/30 03:35:35;;;;;;;;;;;8.70;1.00;;;;;;5035156;28;20314;-84
2021/09/30 03:38:02;;;;;;;;;;;8.70;1.00;;;;;;5033865;28;19913;-84
2021/09/30 03:40:28;;;;;;;;;;;8.70;1.00;;;;;;5033891;28;19924;-84
2021/09/30 03:42:53;;;;;;;;;;;8.70;1.00;;;;;;5034045;28;20017;-84
2021/09/30 03:45:19;;;;;;;;;;;8.70;1.00;;;;;;5035097;28;19916;-84
2021/09/30 03:47:44;;;;;;;;;;;8.60;1.00;;;;;;5032823;28;19923;-84
2021/09/30 03:50:16;;;;;;;;;;;8.60;1.00;;;;;;5034501;28;19924;-84
2021/09/30 03:52:57;;;;;;;;;;;8.60;1.00;;;;;;5038392;28;20325;-85
2021/09/30 04:00:48;;;;;;;;;;;8.60;1.00;;;;;;5038590;28;19924;-84
2021/09/30 04:03:13;;;;;;;;;;;8.50;1.00;;;;;;5039826;28;19913;-84
2021/09/30 04:05:39;;;;;;;;;;;8.50;1.00;;;;;;5038756;28;19917;-84
2021/09/30 04:08:04;;;;;;;;;;;8.50;1.00;;;;;;5038675;28;19960;-84
2021/09/30 04:10:30;;;;;;;;;;;8.50;1.00;;;;;;5038184;28;19920;-84
2021/09/30 04:12:55;;;;;;;;;;;8.50;1.00;;;;;;5040349;28;19909;-84
2021/09/30 04:15:21;;;;;;;;;;;8.50;1.00;;;;;;5039800;28;19952;-84
2021/09/30 04:17:46;;;;;;;;;;;8.50;1.00;;;;;;5039978;28;19920;-84
2021/09/30 04:20:13;;;;;;;;;;;8.50;1.00;;;;;;5036709;28;19924;-84
2021/09/30 04:22:38;;;;;;;;;;;8.50;1.00;;;;;;5039743;28;19918;-84
2021/09/30 04:25:04;;;;;;;;;;;8.50;1.00;;;;;;5036953;28;19998;-84
2021/09/30 04:27:29;;;;;;;;;;;8.50;1.00;;;;;;5039088;28;19920;-85
2021/09/30 04:29:55;;;;;;;;;;;8.40;1.00;;;;;;5035860;28;19917;-84
2021/09/30 04:32:20;;;;;;;;;;;8.40;1.00;;;;;;5039279;28;19967;-84
2021/09/30 04:34:46;;;;;;;;;;;8.40;1.00;;;;;;5036652;28;19963;-85
2021/09/30 04:37:13;;;;;;;;;;;8.40;1.00;;;;;;5034774;28;20378;-83
2021/09/30 04:39:38;;;;;;;;;;;8.40;1.00;;;;;;5035485;28;19916;-84
2021/09/30 04:42:04;;;;;;;;;;;8.40;1.00;;;;;;5036674;28;20393;-83
2021/09/30 04:44:29;;;;;;;;;;;8.30;1.00;;;;;;5038341;28;19967;-84
2021/09/30 04:46:55;;;;;;;;;;;8.30;1.00;;;;;;5039138;28;19909;-84
2021/09/30 04:49:20;;;;;;;;;;;8.30;1.00;;;;;;5037389;28;19913;-83
2021/09/30 04:51:46;;;;;;;;;;;8.30;1.00;;;;;;5039053;28;19936;-84
2021/09/30 04:54:11;;;;;;;;;;;8.30;1.00;;;;;;5039804;28;20593;-84
2021/09/30 04:56:37;;;;;;;;;;;8.30;1.00;;;;;;5037612;28;19932;-84
2021/09/30 04:59:03;;;;;;;;;;;8.30;1.00;;;;;;5037043;28;19913;-83
2021/09/30 05:01:29;;;;;;;;;;;8.30;1.00;;;;;;5038752;28;19913;-84
2021/09/30 05:03:54;;;;;;;;;;;8.20;1.00;;;;;;5038073;28;20424;-84
2021/09/30 05:06:20;;;;;;;;;;;8.20;1.00;;;;;;5038002;28;20003;-84
2021/09/30 05:08:48;;;;;;;;;;;8.20;1.00;;;;;;5037891;28;19913;-83
2021/09/30 05:11:14;;;;;;;;;;;8.20;1.00;;;;;;5039675;28;19921;-83
2021/09/30 05:13:43;;;;;;;;;;;8.20;1.00;;;;;;5036953;28;19913;-84
2021/09/30 05:16:13;;;;;;;;;;;8.20;1.00;;;;;;5037623;28;19919;-83
2021/09/30 05:18:47;;;;;;;;;;;8.20;1.00;;;;;;5037168;28;19948;-84
2021/09/30 05:21:13;;;;;;;;;;;8.20;1.00;;;;;;5042838;28;19945;-84
2021/09/30 05:23:38;;;;;;;;;;;8.20;1.00;;;;;;5044038;28;20408;-84
2021/09/30 05:26:04;;;;;;;;;;;8.20;1.00;;;;;;5043844;28;19910;-84
2021/09/30 05:28:29;;;;;;;;;;;8.20;1.00;;;;;;5042522;28;19948;-85
2021/09/30 05:30:55;;;;;;;;;;;8.20;1.00;;;;;;5043307;28;19928;-84
2021/09/30 05:33:20;;;;;;;;;;;8.20;1.00;;;;;;5042861;28;20007;-85
2021/09/30 05:35:47;;;;;;;;;;;8.20;1.00;;;;;;5042858;28;20456;-85
2021/09/30 05:38:12;;;;;;;;;;;8.20;1.00;;;;;;5043879;28;19929;-83
2021/09/30 05:40:38;;;;;;;;;;;8.30;1.00;;;;;;5042683;28;19917;-85
2021/09/30 05:43:07;;;;;;;;;;;8.30;1.00;;;;;;5040992;28;19913;-84
2021/09/30 05:45:39;;;;;;;;;;;8.50;1.00;;;;;;5042316;28;19913;-83
2021/09/30 05:48:06;;;;;;;;;;;8.60;1.00;;;;;;5043240;28;20378;-84
2021/09/30 05:50:32;;;;;;;;;;;8.70;1.00;;;;;;5041705;28;19913;-83
2021/09/30 05:52:57;;;;;;;;;;;8.80;1.00;;;;;;5043650;28;19913;-84
2021/09/30 05:55:23;;;;;;;;;;;8.90;1.00;;;;;;5041520;28;19966;-84
2021/09/30 05:57:48;;;;;;;;;;;9.00;99.90;;;;;;5040620;28;19920;-83
2021/09/30 06:00:21;;;;;;;;;;;9.20;99.90;;;;;;5041606;28;19943;-83
2021/09/30 06:16:12;;;;;;;;;;;13.40;1.00;;;;;;5043603;28;19913;-85
2021/09/30 06:18:38;;;;;;;;;;;14.10;99.90;;;;;;5053466;28;20277;-85
2021/09/30 06:21:03;;;;;;;;;;;14.10;99.90;;;;;;5063551;28;19913;-84
2021/09/30 06:23:29;;;;;;;;;;;14.10;99.90;;;;;;5040670;28;19913;-84
2021/09/30 06:25:54;;;;;;;;;;;15.60;67.80;;;;;;5039502;28;20010;-85
2021/09/30 06:28:20;;;;;;;;;;;18.20;1.00;;;;;;5035811;28;19913;-85
2021/09/30 06:30:45;;;;;;;;;;;20.50;99.90;;;;;;5035063;28;19920;-86
2021/09/30 06:33:11;;;;;;;;;;;22.20;99.90;;;;;;5034882;28;19913;-85
2021/09/30 06:35:36;;;;;;;;;;;23.40;99.90;;;;;;5034415;28;20335;-85
2021/09/30 06:38:02;;;;;;;;;;;24.30;99.90;;;;;;5037133;28;19915;-85
2021/09/30 06:40:29;;;;;;;;;;;25.40;99.90;;;;;;5035357;28;19924;-86
2021/09/30 06:42:55;;;;;;;;;;;26.60;99.90;;;;;;5038044;28;19917;-83
2021/09/30 06:45:20;;;;;;;;;;;26.90;99.90;;;;;;5038272;28;19935;-84
2021/09/30 06:47:46;;;;;;;;;;;27.00;99.90;;;;;;5037296;28;19920;-83
2021/09/30 06:50:12;;;;;;;;;;;27.40;99.90;;;;;;5034242;28;19913;-83
2021/09/30 06:52:38;;;;;;;;;;;27.70;99.90;;;;;;5041315;28;19953;-82
2021/09/30 06:55:04;;;;;;;;;;;28.70;99.90;;;;;;5039417;28;19913;-83
2021/09/30 06:57:30;;;;;;;;;;;28.70;99.90;;;;;;5035402;28;19917;-84
2021/09/30 06:59:59;;;;;;;;;;;29.50;99.90;;;;;;5036719;28;19945;-84
2021/09/30 07:02:24;;;;;;;;;;;30.50;99.90;;;;;;5036206;28;19917;-83
2021/09/30 07:04:50;;;;;;;;;;;31.40;99.90;;;;;;5035814;28;20361;-85
2021/09/30 07:07:16;;;;;;;;;;;32.30;99.90;;;;;;5034901;28;19920;-84
2021/09/30 07:09:41;;;;;;;;;;;33.10;99.90;;;;;;5031997;28;19920;-84
2021/09/30 07:12:07;;;;;;;;;;;33.90;99.90;;;;;;5034209;28;20009;-84
2021/09/30 07:14:33;;;;;;;;;;;34.50;99.90;;;;;;5024199;28;19919;-84
2021/09/30 07:16:58;;;;;;;;;;;34.80;99.90;;;;;;5023321;28;19913;-83
2021/09/30 07:19:24;;;;;;;;;;;35.20;99.90;;;;;;5041587;28;20304;-84
2021/09/30 07:21:50;;;;;;;;;;;35.80;99.90;;;;;;5029867;28;19913;-84
2021/09/30 07:24:15;;;;;;;;;;;36.40;99.90;;;;;;5028880;28;19917;-84
2021/09/30 07:26:41;;;;;;;;;;;36.90;99.90;;;;;;5032537;28;20053;-83
2021/09/30 07:29:06;;;;;;;;;;;37.40;99.90;;;;;;5037343;28;19913;-83
2021/09/30 07:31:32;;;;;;;;;;;37.70;99.90;;;;;;5037038;28;19917;-84
2021/09/30 07:33:59;;;;;;;;;;;37.60;99.90;;;;;;5025102;28;20150;-82
2021/09/30 07:36:25;;;;;;;;;;;38.00;99.90;;;;;;5039348;28;19940;-82
2021/09/30 07:38:50;;;;;;;;;;;37.30;99.90;;;;;;5033710;28;20015;-82
2021/09/30 07:41:16;;;;;;;;;;;36.20;99.90;;;;;;5036461;28;19913;-83
2021/09/30 07:43:42;;;;;;;;;;;35.60;99.90;;;;;;5038984;28;20000;-83
2021/09/30 07:46:07;;;;;;;;;;;35.60;99.90;;;;;;5038027;28;19920;-82
2021/09/30 07:48:33;;;;;;;;;;;35.60;99.90;;;;;;5036602;28;19920;-82
2021/09/30 07:50:58;;;;;;;;;;;35.90;99.90;;;;;;5037674;28;20400;-83
2021/09/30 07:53:24;;;;;;;;;;;36.70;99.90;;;;;;5028938;28;20493;-82
2021/09/30 07:55:49;;;;;;;;;;;36.80;99.90;;;;;;5030424;28;19921;-83
2021/09/30 07:58:15;;;;;;;;;;;35.70;99.90;;;;;;5040419;28;19936;-83
2021/09/30 08:00:41;;;;;;;;;;;34.50;99.90;;;;;;5034982;28;19920;-83
2021/09/30 08:03:07;;;;;;;;;;;33.20;99.90;;;;;;5036218;28;19920;-82
2021/09/30 08:05:36;;;;;;;;;;;32.60;99.90;;;;;;5034778;28;20290;-81
2021/09/30 08:08:02;;;;;;;;;;;31.80;99.90;;;;;;5033634;28;19913;-81
2021/09/30 08:10:28;;;;;;;;;;;31.30;99.90;;;;;;5021842;28;19917;-82
2021/09/30 08:12:53;;;;;;;;;;;31.50;99.90;;;;;;5034507;28;19932;-81
2021/09/30 08:15:19;;;;;;;;;;;32.00;99.90;;;;;;5033040;28;19940;-81
2021/09/30 08:17:44;;;;;;;;;;;32.10;99.90;;;;;;5037944;28;19931;-82
2021/09/30 08:20:10;;;;;;;;;;;32.60;99.90;;;;;;5036724;28;19967;-82
2021/09/30 08:22:35;;;;;;;;;;;33.70;99.90;;;;;;5035389;28;19948;-82
2021/09/30 08:25:01;;;;;;;;;;;34.80;99.90;;;;;;5038194;28;20328;-81
2021/09/30 08:27:26;;;;;;;;;;;34.70;99.90;;;;;;5042716;28;19940;-82
2021/09/30 08:29:52;;;;;;;;;;;34.60;99.90;;;;;;5035063;28;21396;-82
2021/09/30 08:32:17;;;;;;;;;;;35.30;99.90;;;;;;5045253;28;19914;-82
2021/09/30 08:34:43;;;;;;;;;;;35.10;99.90;;;;;;5046641;28;19909;-82
2021/09/30 08:37:09;;;;;;;;;;;34.70;99.90;;;;;;5042562;28;19972;-82
2021/09/30 08:39:35;;;;;;;;;;;35.90;99.90;;;;;;5046558;28;19937;-82
2021/09/30 08:42:03;;;;;;;;;;;37.10;99.90;;;;;;5048705;28;20284;-82
2021/09/30 08:44:30;;;;;;;;;;;37.80;99.90;;;;;;5046443;28;19936;-83
2021/09/30 08:46:56;;;;;;;;;;;38.10;99.90;;;;;;5039953;28;20407;-82
2021/09/30 08:49:21;;;;;;;;;;;38.20;99.90;;;;;;5047993;28;19909;-82
2021/09/30 08:51:46;;;;;;;;;;;38.30;99.90;;;;;;5045220;28;19968;-82
2021/09/30 08:54:12;;;;;;;;;;;38.60;99.90;;;;;;5047068;28;19921;-82
2021/09/30 08:56:37;;;;;;;;;;;38.90;99.90;;;;;;5043322;28;20898;-82
2021/09/30 08:59:12;;;;;;;;;;;39.00;99.90;;;;;;5044155;28;19913;-82
2021/09/30 09:01:38;;;;;;;;;;;39.20;99.90;;;;;;5044465;28;19939;-82
2021/09/30 09:04:15;;;;;;;;;;;39.20;99.90;;;;;;5046832;28;19913;-82
2021/09/30 09:06:41;;;;;;;;;;;39.10;99.90;;;;;;5045493;28;19939;-82
2021/09/30 09:09:22;;;;;;;;;;;39.30;99.90;;;;;;5046902;28;19916;-82
2021/09/30 09:11:49;;;;;;;;;;;39.40;99.90;;;;;;5045246;28;19932;-82
2021/09/30 09:14:28;;;;;;;;;;;39.60;99.90;;;;;;5040501;28;19918;-82
2021/09/30 09:16:58;;;;;;;;;;;39.70;99.90;;;;;;5043537;28;19913;-82
2021/09/30 09:19:35;;;;;;;;;;;39.80;99.90;;;;;;5045152;28;20166;-82
2021/09/30 09:22:05;;;;;;;;;;;39.90;99.90;;;;;;5044857;28;19949;-82
2021/09/30 09:24:30;;;;;;;;;;;40.10;99.90;;;;;;5040829;28;19914;-82
2021/09/30 09:26:59;;;;;;;;;;;39.60;99.90;;;;;;5044929;28;19913;-82
2021/09/30 09:29:28;;;;;;;;;;;38.00;99.90;;;;;;5045509;28;19920;-82
2021/09/30 09:31:53;;;;;;;;;;;36.30;99.90;;;;;;5039375;28;19952;-82
2021/09/30 09:34:27;;;;;;;;;;;35.50;99.90;;;;;;5039262;28;19924;-82
2021/09/30 09:36:53;;;;;;;;;;;34.40;99.90;;;;;;5036845;28;19914;-82
2021/09/30 09:39:32;;;;;;;;;;;33.40;99.90;;;;;;5029048;28;19921;-81
2021/09/30 09:42:05;;;;;;;;;;;32.90;99.90;;;;;;5032255;28;19952;-82
2021/09/30 09:44:30;;;;;;;;;;;33.80;99.90;;;;;;5035012;28;19923;-82
2021/09/30 09:46:56;;;;;;;;;;;34.80;99.90;;;;;;5027472;28;19917;-82
2021/09/30 09:49:22;;;;;;;;;;;36.10;99.90;;;;;;5042872;28;19917;-82
2021/09/30 09:51:49;;;;;;;;;;;36.40;99.90;;;;;;5042158;28;19917;-82
2021/09/30 09:54:17;;;;;;;;;;;36.40;99.90;;;;;;5036394;28;19914;-82
2021/09/30 09:56:43;;;;;;;;;;;35.80;99.90;;;;;;5041539;28;19913;-82
2021/09/30 09:59:09;;;;;;;;;;;36.00;99.90;;;;;;5045790;28;19942;-82
2021/09/30 10:01:37;;;;;;;;;;;35.00;99.90;;;;;;5035145;28;19929;-82
2021/09/30 10:04:03;;;;;;;;;;;34.00;99.90;;;;;;5038208;28;19913;-82
2021/09/30 10:06:30;;;;;;;;;;;33.40;99.90;;;;;;5040930;28;19924;-82
2021/09/30 10:08:55;;;;;;;;;;;32.50;99.90;;;;;;5043487;28;19909;-82
2021/09/30 10:11:21;;;;;;;;;;;33.00;99.90;;;;;;5036514;28;19989;-81
2021/09/30 10:13:47;;;;;;;;;;;33.20;99.90;;;;;;5043769;28;20381;-81
2021/09/30 10:16:15;;;;;;;;;;;33.00;99.90;;;;;;5041213;28;20385;-82
2021/09/30 10:18:40;;;;;;;;;;;33.00;99.90;;;;;;5040444;28;19955;-82
2021/09/30 10:21:06;;;;;;;;;;;34.00;99.90;;;;;;5043314;28;20258;-82
2021/09/30 10:23:34;;;;;;;;;;;33.70;99.90;;;;;;5044610;28;19913;-82
2021/09/30 10:26:10;;;;;;;;;;;33.70;99.90;;;;;;5040170;28;19913;-81
2021/09/30 10:28:40;;;;;;;;;;;33.20;99.90;;;;;;5042531;28;19914;-82
2021/09/30 10:31:18;;;;;;;;;;;34.20;99.90;;;;;;5045882;28;19917;-82
2021/09/30 10:33:44;;;;;;;;;;;34.60;99.90;;;;;;5034816;28;19920;-83
2021/09/30 10:36:45;;;;;;;;;;;35.00;99.90;;;;;;5048622;28;19913;-83
2021/09/30 10:39:14;;;;;;;;;;;35.10;99.90;;;;;;4984083;28;19915;-83
2021/09/30 10:41:39;;;;;;;;;;;36.30;99.90;;;;;;5026557;28;19919;-83
2021/09/30 10:44:15;;;;;;;;;;;37.10;99.90;;;;;;5037528;28;20008;-83
2021/09/30 10:46:42;;;;;;;;;;;37.00;99.90;;;;;;5035643;28;19967;-83
2021/09/30 10:49:26;;;;;;;;;;;36.00;99.90;;;;;;5045974;28;19951;-82
2021/09/30 10:52:18;;;;;;;;;;;34.60;99.90;;;;;;5035282;28;19917;-83
2021/09/30 10:55:04;;;;;;;;;;;32.90;99.90;;;;;;5035444;28;19913;-82
2021/09/30 10:57:32;;;;;;;;;;;31.70;99.90;;;;;;5036558;28;19924;-83
2021/09/30 10:59:58;;;;;;;;;;;30.90;99.90;;;;;;5036526;28;19937;-82
2021/09/30 11:02:24;;;;;;;;;;;30.20;99.90;;;;;;5037849;28;19913;-82
2021/09/30 11:05:08;;;;;;;;;;;29.70;99.90;;;;;;5035694;28;19921;-82
2021/09/30 11:07:34;;;;;;;;;;;29.20;99.90;;;;;;5037406;28;19917;-82
2021/09/30 11:10:16;;;;;;;;;;;28.50;99.90;;;;;;5037838;28;19913;-82
2021/09/30 11:13:05;;;;;;;;;;;27.80;99.90;;;;;;5035113;28;19913;-82
2021/09/30 11:15:56;;;;;;;;;;;27.00;99.90;;;;;;5021866;28;20290;-82
2021/09/30 11:18:41;;;;;;;;;;;26.40;99.90;;;;;;5016377;28;20628;-82
2021/09/30 11:21:24;;;;;;;;;;;25.80;99.90;;;;;;5022677;28;19917;-82
2021/09/30 11:23:51;;;;;;;;;;;25.20;99.90;;;;;;5036661;28;20268;-82
2021/09/30 11:26:16;;;;;;;;;;;24.90;99.90;;;;;;5040040;28;19913;-82
2021/09/30 11:28:42;;;;;;;;;;;24.70;99.90;;;;;;5041130;28;19909;-81
2021/09/30 11:31:19;;;;;;;;;;;24.50;99.90;;;;;;5038772;28;19928;-82
2021/09/30 11:33:45;;;;;;;;;;;24.30;99.90;;;;;;5042316;28;19921;-82
2021/09/30 11:36:11;;;;;;;;;;;24.30;99.90;;;;;;5039786;28;19913;-82
2021/09/30 11:38:38;;;;;;;;;;;24.30;99.90;;;;;;5040469;28;20290;-82
2021/09/30 11:41:04;;;;;;;;;;;24.40;99.90;;;;;;5039260;28;19932;-82
2021/09/30 11:43:29;;;;;;;;;;;24.60;99.90;;;;;;5039108;28;19909;-82
2021/09/30 11:45:55;;;;;;;;;;;24.70;99.90;;;;;;5039951;28;19944;-82
2021/09/30 11:48:20;;;;;;;;;;;24.90;99.90;;;;;;5041143;28;19916;-82
2021/09/30 11:50:54;;;;;;;;;;;25.30;99.90;;;;;;5040113;28;19918;-82
2021/09/30 11:53:20;;;;;;;;;;;25.50;99.90;;;;;;5042085;28;19909;-82
2021/09/30 11:55:45;;;;;;;;;;;25.60;99.90;;;;;;5039171;28;19913;-82
2021/09/30 11:58:12;;;;;;;;;;;25.30;99.90;;;;;;5040653;28;20360;-82
2021/09/30 12:00:40;;;;;;;;;;;25.10;99.90;;;;;;5039900;28;19919;-82
2021/09/30 12:03:06;;;;;;;;;;;25.10;99.90;;;;;;5048981;28;19944;-82
2021/09/30 12:05:34;;;;;;;;;;;24.90;99.90;;;;;;5062570;28;19923;-82
2021/09/30 12:08:00;;;;;;;;;;;24.70;99.90;;;;;;5057256;28;19913;-82
2021/09/30 12:10:26;;;;;;;;;;;24.50;99.90;;;;;;5040835;28;19920;-83
2021/09/30 12:12:51;;;;;;;;;;;24.20;99.90;;;;;;5040414;28;20293;-83
2021/09/30 12:15:17;;;;;;;;;;;24.10;99.90;;;;;;5039432;28;19937;-82
2021/09/30 12:17:42;;;;;;;;;;;24.00;99.90;;;;;;5041447;28;19909;-82
2021/09/30 12:20:10;;;;;;;;;;;23.80;99.90;;;;;;5039840;28;20562;-83
2021/09/30 12:22:37;;;;;;;;;;;23.70;99.90;;;;;;5042118;28;19909;-82
2021/09/30 12:25:05;;;;;;;;;;;23.50;99.90;;;;;;5037995;28;19913;-82
2021/09/30 12:27:32;;;;;;;;;;;23.30;99.90;;;;;;5035522;28;19909;-82
2021/09/30 12:30:03;;;;;;;;;;;23.10;99.90;;;;;;5034145;28;19939;-81
2021/09/30 12:32:31;;;;;;;;;;;23.00;99.90;;;;;;5034377;28;20389;-81
2021/09/30 12:35:03;;;;;;;;;;;22.90;99.90;;;;;;5035887;28;19909;-81
2021/09/30 12:37:36;;;;;;;;;;;22.60;99.90;;;;;;5033938;28;19913;-81
2021/09/30 12:40:09;;;;;;;;;;;22.30;99.90;;;;;;5036707;28;20370;-82
2021/09/30 12:42:35;;;;;;;;;;;21.80;99.90;;;;;;5039060;28;19913;-82
2021/09/30 12:45:01;;;;;;;;;;;21.60;99.90;;;;;;5038003;28;19959;-82
2021/09/30 12:47:38;;;;;;;;;;;21.30;99.90;;;;;;5036779;28;19913;-82
2021/09/30 12:50:08;;;;;;;;;;;21.00;99.90;;;;;;5036818;28;19960;-81
2021/09/30 12:52:35;;;;;;;;;;;20.80;99.90;;;;;;5038288;28;19913;-81
2021/09/30 12:55:23;;;;;;;;;;;20.50;99.90;;;;;;5036554;28;19913;-81
2021/09/30 12:57:49;;;;;;;;;;;20.30;99.90;;;;;;5038910;28;19940;-81
2021/09/30 13:00:17;;;;;;;;;;;20.10;99.90;;;;;;5038516;28;19913;-81
2021/09/30 13:02:42;;;;;;;;;;;19.90;99.90;;;;;;5041532;28;19916;-81
2021/09/30 13:05:08;;;;;;;;;;;19.60;99.90;;;;;;5039714;28;20400;-81
2021/09/30 13:07:44;;;;;;;;;;;19.40;99.90;;;;;;5040502;28;19917;-81
2021/09/30 13:10:10;;;;;;;;;;;19.20;99.90;;;;;;5038723;28;19913;-81
2021/09/30 13:12:35;;;;;;;;;;;19.10;99.90;;;;;;5045600;28;19913;-81
2021/09/30 13:15:01;;;;;;;;;;;18.90;99.90;;;;;;5061419;28;19908;-81
2021/09/30 13:17:27;;;;;;;;;;;18.80;99.90;;;;;;5048641;28;19909;-81
2021/09/30 13:19:56;;;;;;;;;;;18.70;99.90;;;;;;5040354;28;19936;-81
2021/09/30 13:22:28;;;;;;;;;;;18.70;99.90;;;;;;5042570;28;20012;-81
2021/09/30 13:24:57;;;;;;;;;;;18.70;99.90;;;;;;5038530;28;19936;-81
2021/09/30 13:27:26;;;;;;;;;;;18.70;99.90;;;;;;5040128;28;19940;-81
2021/09/30 13:29:51;;;;;;;;;;;18.70;99.90;;;;;;5040682;28;19963;-81
2021/09/30 13:32:17;;;;;;;;;;;18.70;99.90;;;;;;5040813;28;19913;-81
2021/09/30 13:34:43;;;;;;;;;;;18.70;99.90;;;;;;5039722;28;19990;-83
2021/09/30 13:37:09;;;;;;;;;;;18.70;99.90;;;;;;5038150;28;19917;-81
2021/09/30 13:39:35;;;;;;;;;;;18.70;99.90;;;;;;5040200;28;20352;-81
2021/09/30 13:42:00;;;;;;;;;;;18.80;99.90;;;;;;5039544;28;19916;-81
2021/09/30 13:44:26;;;;;;;;;;;18.90;99.90;;;;;;5037065;28;20281;-81
2021/09/30 13:46:51;;;;;;;;;;;19.10;99.90;;;;;;5037980;28;19932;-81
2021/09/30 13:49:17;;;;;;;;;;;19.20;99.90;;;;;;5037665;28;19913;-81
2021/09/30 13:51:43;;;;;;;;;;;19.40;99.90;;;;;;5038918;28;19920;-81
2021/09/30 13:54:08;;;;;;;;;;;19.50;99.90;;;;;;5036226;28;19917;-81
2021/09/30 13:56:34;;;;;;;;;;;19.60;99.90;;;;;;5037842;28;19917;-81
2021/09/30 13:58:59;;;;;;;;;;;19.60;99.90;;;;;;5037273;28;20523;-81
2021/09/30 14:01:25;;;;;;;;;;;19.70;99.90;;;;;;5037691;28;19935;-81
2021/09/30 14:03:50;;;;;;;;;;;19.80;99.90;;;;;;5038283;28;20384;-80
2021/09/30 14:06:19;;;;;;;;;;;19.90;99.90;;;;;;5038181;28;19917;-82
2021/09/30 14:08:44;;;;;;;;;;;20.10;99.90;;;;;;5037482;28;20381;-81
2021/09/30 14:11:11;;;;;;;;;;;20.10;99.90;;;;;;5049434;28;19924;-81
2021/09/30 14:13:36;;;;;;;;;;;20.10;99.90;;;;;;5034427;28;19928;-80
2021/09/30 14:16:02;;;;;;;;;;;19.90;99.90;;;;;;5037179;28;19910;-81
2021/09/30 14:18:28;;;;;;;;;;;19.80;99.90;;;;;;5035766;28;19909;-82
2021/09/30 14:20:54;;;;;;;;;;;19.60;99.90;;;;;;5036115;28;19971;-82
2021/09/30 14:23:22;;;;;;;;;;;19.50;99.90;;;;;;5035697;28;19909;-81
2021/09/30 14:25:48;;;;;;;;;;;19.30;99.90;;;;;;5037375;28;19913;-82
2021/09/30 14:28:13;;;;;;;;;;;19.20;99.90;;;;;;5053051;28;21625;-82
2021/09/30 14:30:39;;;;;;;;;;;19.10;99.90;;;;;;5040570;28;19917;-82
2021/09/30 14:33:05;;;;;;;;;;;19.00;99.90;;;;;;5039776;28;19913;-84
2021/09/30 14:35:30;;;;;;;;;;;19.10;99.90;;;;;;5038755;28;20552;-83
2021/09/30 14:37:56;;;;;;;;;;;19.10;99.90;;;;;;5038308;28;19910;-83
2021/09/30 14:40:21;;;;;;;;;;;19.20;99.90;;;;;;5038846;28;19913;-82
2021/09/30 14:42:47;;;;;;;;;;;19.20;99.90;;;;;;5039144;28;19916;-83
2021/09/30 14:45:12;;;;;;;;;;;19.20;99.90;;;;;;5036704;28;19920;-82
2021/09/30 14:47:38;;;;;;;;;;;19.10;99.90;;;;;;5037113;28;19913;-83
2021/09/30 14:50:03;;;;;;;;;;;18.90;99.90;;;;;;5036877;28;19940;-83
2021/09/30 14:52:29;;;;;;;;;;;18.80;99.90;;;;;;5036783;28;19955;-83
2021/09/30 14:54:54;;;;;;;;;;;18.80;99.90;;;;;;5038565;28;19909;-83
2021/09/30 14:57:20;;;;;;;;;;;18.70;99.90;;;;;;5037348;28;20374;-82
2021/09/30 14:59:45;;;;;;;;;;;18.60;99.90;;;;;;5035757;28;19986;-82
2021/09/30 15:02:11;;;;;;;;;;;18.60;99.90;;;;;;5036169;28;19913;-83
2021/09/30 15:04:37;;;;;;;;;;;18.60;99.90;;;;;;5036379;28;19976;-83
2021/09/30 15:07:03;;;;;;;;;;;18.60;99.90;;;;;;5076532;22;19963;-78
2021/09/30 15:09:28;;;;;;;;;;;18.60;99.90;;;;;;5068513;28;20274;-79
2021/09/30 15:11:54;;;;;;;;;;;18.50;99.90;;;;;;5079671;28;19930;-80
2021/09/30 15:14:20;;;;;;;;;;;18.40;99.90;;;;;;5073354;28;19951;-78
2021/09/30 15:16:55;;;;;;;;;;;18.40;99.90;;;;;;5074362;28;19966;-79
2021/09/30 15:19:26;;;;;;;;;;;18.40;99.90;;;;;;5048164;28;19948;-78
2021/09/30 15:21:52;;;;;;;;;;;18.40;99.90;;;;;;5055564;28;20063;-77
2021/09/30 15:24:19;;;;;;;;;;;18.40;99.90;;;;;;5067952;28;20016;-77
2021/09/30 15:26:45;;;;;;;;;;;18.30;99.90;;;;;;5053311;28;20407;-79
2021/09/30 15:29:11;;;;;;;;;;;18.20;99.90;;;;;;5053842;28;19912;-79
2021/09/30 15:31:38;;;;;;;;;;;18.20;99.90;;;;;;5035322;28;19920;-81
2021/09/30 15:34:03;;;;;;;;;;;18.00;99.90;;;;;;5057803;28;19913;-81
2021/09/30 15:36:30;;;;;;;;;;;18.00;99.90;;;;;;5054663;28;19913;-77
2021/09/30 15:38:59;;;;;;;;;;;17.90;99.90;;;;;;5052510;28;19917;-79
2021/09/30 15:41:24;;;;;;;;;;;17.80;99.90;;;;;;5071526;28;19909;-78
2021/09/30 15:43:50;;;;;;;;;;;17.70;99.90;;;;;;5073357;28;19908;-79
2021/09/30 15:46:16;;;;;;;;;;;17.60;99.90;;;;;;5042876;28;19917;-81
2021/09/30 15:48:42;;;;;;;;;;;17.50;99.90;;;;;;5054865;28;20411;-80
2021/09/30 15:51:09;;;;;;;;;;;17.40;99.90;;;;;;5059824;28;19920;-79
2021/09/30 15:53:34;;;;;;;;;;;17.30;99.90;;;;;;5052080;28;19909;-81
2021/09/30 15:56:00;;;;;;;;;;;17.30;99.90;;;;;;5063351;28;19912;-79
2021/09/30 15:58:25;;;;;;;;;;;17.20;99.90;;;;;;5072550;28;19909;-79
2021/09/30 16:00:51;;;;;;;;;;;17.10;99.90;;;;;;5043766;28;20001;-79
2021/09/30 16:03:16;;;;;;;;;;;16.90;99.90;;;;;;5035070;28;19916;-77
2021/09/30 16:05:42;;;;;;;;;;;16.90;99.90;;;;;;5053782;28;19917;-79
2021/09/30 16:08:08;;;;;;;;;;;16.80;99.90;;;;;;5061331;28;19928;-78
2021/09/30 16:10:33;;;;;;;;;;;16.80;99.90;;;;;;5034810;28;19920;-81
2021/09/30 16:12:59;;;;;;;;;;;16.70;99.90;;;;;;5035788;28;19920;-80
2021/09/30 16:15:24;;;;;;;;;;;16.60;99.90;;;;;;5072665;28;19935;-80
2021/09/30 16:17:50;;;;;;;;;;;16.60;99.90;;;;;;5053211;28;20257;-80
2021/09/30 16:20:16;;;;;;;;;;;16.50;99.90;;;;;;5071512;28;20288;-79
2021/09/30 16:22:41;;;;;;;;;;;16.50;99.90;;;;;;5072298;28;19908;-79
2021/09/30 16:25:07;;;;;;;;;;;16.50;99.90;;;;;;5054639;28;19913;-78
2021/09/30 16:27:33;;;;;;;;;;;16.40;99.90;;;;;;5053319;28;19913;-80
2021/09/30 16:29:59;;;;;;;;;;;16.40;99.90;;;;;;5050578;28;19929;-81
2021/09/30 16:32:25;;;;;;;;;;;16.30;99.90;;;;;;5052778;28;19913;-80
2021/09/30 16:34:51;;;;;;;;;;;16.30;99.90;;;;;;5052064;28;19928;-81
2021/09/30 16:37:16;;;;;;;;;;;16.30;99.90;;;;;;5040037;28;19928;-78
2021/09/30 16:39:42;;;;;;;;;;;16.20;99.90;;;;;;5056061;28;19909;-77
2021/09/30 16:42:07;;;;;;;;;;;16.20;99.90;;;;;;5043981;28;19921;-81
2021/09/30 16:44:33;;;;;;;;;;;16.20;99.90;;;;;;5055191;28;19909;-82
2021/09/30 16:46:58;;;;;;;;;;;16.20;99.90;;;;;;5045978;28;20369;-80
2021/09/30 16:49:24;;;;;;;;;;;16.10;99.90;;;;;;5058327;28;20024;-80
2021/09/30 16:51:50;;;;;;;;;;;16.00;99.90;;;;;;5058988;28;19917;-79
2021/09/30 16:54:18;;;;;;;;;;;16.00;99.90;;;;;;5062002;28;19912;-78
2021/09/30 16:56:44;;;;;;;;;;;15.90;99.90;;;;;;5070844;28;20316;-78
2021/09/30 16:59:10;;;;;;;;;;;15.90;99.90;;;;;;5046370;28;19920;-80
2021/09/30 17:01:37;;;;;;;;;;;15.90;99.90;;;;;;5061831;28;19920;-80
2021/09/30 17:04:03;;;;;;;;;;;15.80;99.90;;;;;;5053366;28;19912;-81
2021/09/30 17:06:28;;;;;;;;;;;15.70;99.90;;;;;;5037652;28;19912;-79
2021/09/30 17:08:54;;;;;;;;;;;15.70;99.90;;;;;;5057260;28;19958;-80
2021/09/30 17:11:19;;;;;;;;;;;15.60;99.90;;;;;;5056364;28;20384;-83
2021/09/30 17:13:45;;;;;;;;;;;15.50;99.90;;;;;;5056348;28;20334;-79